createdAt,value
2019-04-11T17:48:02.601Z,33.04
2019-04-11T17:49:02.601Z,33.14
2019-04-11T17:50:04.496Z,33.84
2019-04-11T17:51:04.814Z,33.04
2019-04-11T17:52:04.889Z,33.14
2019-04-11T17:53:02.554Z,32.93
2019-04-11T17:53:47.713Z,32.93
2019-04-11T17:54:47.591Z,32.82
2019-04-11T17:55:47.569Z,32.94
2019-04-11T17:56:47.545Z,33.14
2019-04-11T17:57:47.465Z,33.24
2019-04-11T17:58:47.433Z,33.24
2019-04-11T17:59:48.733Z,33.04
2019-04-11T18:00:47.337Z,33.14
2019-04-11T18:01:47.298Z,32.96
2019-04-11T18:02:47.267Z,33.06
2019-04-11T18:03:47.218Z,33.06
2019-04-11T18:04:48.056Z,33.14
2019-04-11T18:05:47.559Z,32.43
2019-04-11T18:06:47.732Z,31.81
2019-04-11T18:07:49.771Z,32.12
2019-04-11T18:38:32.025Z,15.22
2019-04-11T18:40:40.240Z,22.83
2019-04-11T18:41:39.824Z,26.34
2019-04-11T18:42:39.795Z,31.28
2019-04-11T18:43:39.785Z,34.23
2019-04-11T18:44:39.785Z,35.86
2019-04-11T18:45:39.787Z,39.12
2019-04-11T18:46:39.760Z,40.71
2019-04-11T18:47:39.761Z,41.58
2019-04-11T18:48:39.741Z,42.21
2019-04-11T18:49:39.735Z,43.16
2019-04-11T18:50:39.774Z,45.67
2019-04-11T18:51:39.719Z,45.05
2019-04-11T18:52:39.696Z,44.76
2019-04-11T18:53:39.672Z,45.28
2019-04-11T18:54:39.663Z,46.00
2019-04-11T18:55:39.662Z,47.25
2019-04-11T18:56:39.670Z,46.21
2019-04-11T18:57:39.656Z,46.94
2019-04-11T18:58:39.626Z,46.21
2019-04-11T18:59:39.616Z,48.93
2019-04-11T19:00:39.612Z,46.75
2019-04-11T19:01:40.145Z,47.06
2019-04-11T19:02:40.262Z,47.06
2019-04-11T19:03:41.344Z,47.16
2019-04-11T19:04:41.965Z,46.34
2019-04-11T19:05:42.786Z,46.54
2019-04-11T19:06:42.576Z,46.64
2019-04-11T19:07:42.845Z,46.77
2019-04-11T19:08:43.147Z,47.37
2019-04-11T19:09:43.431Z,47.08
2019-04-11T19:10:39.529Z,46.77
2019-04-11T19:11:39.551Z,46.56
2019-04-11T19:12:39.598Z,46.98
2019-04-11T19:13:39.535Z,48.54
2019-04-11T19:14:39.490Z,46.46
2019-04-11T19:15:39.508Z,46.88
2019-04-11T19:16:39.462Z,47.81
2019-04-11T19:17:39.465Z,49.05
2019-04-11T19:18:39.569Z,47.81
2019-04-11T19:19:39.453Z,47.29
2019-04-11T19:20:39.433Z,46.88
2019-04-11T19:21:39.414Z,46.98
2019-04-11T19:22:39.424Z,47.08
2019-04-11T19:23:39.759Z,47.29
2019-04-11T19:24:41.659Z,47.60
2019-04-11T19:25:44.359Z,47.50
2019-04-11T19:26:40.414Z,47.29
2019-04-11T19:27:39.361Z,47.60
2019-04-11T19:28:39.341Z,48.33
2019-04-11T19:29:39.325Z,47.60
2019-04-11T19:30:39.338Z,48.02
2019-04-11T19:31:39.303Z,49.88
2019-04-11T19:32:39.318Z,48.95
2019-04-11T19:33:40.098Z,48.22
2019-04-11T19:34:39.314Z,48.25
2019-04-11T19:35:41.511Z,48.14
2019-04-11T19:36:39.845Z,48.56
2019-04-11T19:37:41.788Z,47.63
2019-04-11T19:38:43.102Z,48.87
2019-04-11T19:39:39.236Z,48.04
2019-04-11T19:40:39.208Z,48.14
2019-04-11T19:41:39.219Z,47.73
2019-04-11T19:42:39.235Z,47.73
2019-04-11T19:43:40.844Z,47.83
2019-04-11T19:44:39.184Z,48.66
2019-04-11T19:45:39.155Z,48.04
2019-04-11T19:46:40.908Z,47.63
2019-04-11T19:47:39.189Z,48.14
2019-04-11T19:48:39.143Z,47.52
2019-04-11T19:49:39.115Z,47.73
2019-04-11T19:50:39.108Z,47.52
2019-04-11T19:51:39.091Z,47.73
2019-04-11T19:52:45.320Z,46.38
2019-04-11T19:53:40.113Z,47.11
2019-04-11T19:54:39.110Z,47.00
2019-04-11T19:55:39.103Z,46.69
2019-04-11T19:56:39.031Z,47.83
2019-04-11T19:57:39.033Z,48.35
2019-04-11T19:58:39.022Z,48.35
2019-04-11T19:59:39.030Z,47.52
2019-04-11T20:00:39.031Z,47.63
2019-04-11T20:01:38.995Z,49.08
2019-04-11T20:02:39.006Z,48.46
2019-04-11T20:03:38.973Z,46.90
2019-04-11T20:04:38.988Z,47.52
2019-04-11T20:05:38.990Z,47.42
2019-04-11T20:06:38.950Z,47.52
2019-04-11T20:07:38.941Z,47.31
2019-04-11T20:08:38.923Z,48.46
2019-04-11T20:09:38.940Z,48.14
2019-04-11T20:10:38.964Z,48.14
2019-04-11T20:11:38.907Z,48.77
2019-04-11T20:12:38.875Z,47.63
2019-04-11T20:13:38.912Z,47.83
2019-04-11T20:14:38.858Z,47.83
2019-04-11T20:15:42.139Z,47.94
2019-04-11T20:16:42.021Z,48.25
2019-04-11T20:17:44.607Z,48.56
2019-04-11T20:18:50.385Z,49.29
2019-04-11T20:19:39.827Z,48.66
2019-04-11T20:20:38.820Z,47.63
2019-04-11T20:21:39.064Z,47.83
2019-04-11T20:22:39.788Z,47.83
2019-04-11T20:23:41.395Z,48.47
2019-04-11T20:24:38.752Z,48.14
2019-04-11T20:25:38.779Z,48.46
2019-04-11T20:26:38.758Z,47.94
2019-04-11T20:27:38.700Z,47.13
2019-04-11T20:28:38.720Z,47.73
2019-04-11T20:29:38.713Z,47.21
2019-04-11T20:30:38.699Z,47.73
2019-04-11T20:31:38.713Z,48.06
2019-04-11T20:32:38.657Z,50.01
2019-04-11T20:33:38.669Z,49.30
2019-04-11T20:34:39.176Z,48.79
2019-04-11T20:35:40.042Z,48.16
2019-04-11T20:36:41.070Z,49.20
2019-04-11T20:37:39.646Z,48.99
2019-04-11T20:38:38.683Z,48.79
2019-04-11T20:39:38.579Z,49.41
2019-04-11T20:40:38.586Z,48.99
2019-04-11T20:41:38.587Z,49.10
2019-04-11T20:42:38.541Z,50.24
2019-04-11T20:43:38.545Z,50.13
2019-04-11T20:44:38.527Z,50.34
2019-04-11T20:45:38.508Z,50.24
2019-04-11T20:46:38.543Z,50.45
2019-04-11T20:47:38.538Z,50.24
2019-04-11T20:48:38.481Z,50.24
2019-04-11T20:49:38.484Z,50.03
2019-04-11T20:50:38.475Z,52.31
2019-04-11T20:51:38.435Z,50.03
2019-04-11T20:52:38.469Z,52.73
2019-04-11T20:53:38.439Z,51.59
2019-04-11T20:54:39.136Z,50.96
2019-04-11T20:55:39.351Z,50.55
2019-04-11T20:56:40.373Z,51.28
2019-04-11T20:57:40.451Z,51.17
2019-04-11T20:58:39.732Z,52.13
2019-04-11T20:59:42.242Z,50.96
2019-04-11T21:00:49.526Z,51.72
2019-04-11T21:01:39.351Z,51.20
2019-04-11T21:02:38.353Z,52.03
2019-04-11T21:03:38.319Z,51.82
2019-04-11T21:04:38.301Z,51.92
2019-04-11T21:05:38.301Z,52.75
2019-04-11T21:06:38.291Z,51.61
2019-04-11T21:07:39.218Z,51.92
2019-04-11T21:08:38.289Z,51.92
2019-04-11T21:09:38.246Z,51.92
2019-04-11T21:10:38.225Z,51.82
2019-04-11T21:11:38.238Z,52.23
2019-04-11T21:12:38.209Z,52.55
2019-04-11T21:13:38.976Z,52.13
2019-04-11T21:14:38.226Z,52.75
2019-04-11T21:15:38.192Z,52.44
2019-04-11T21:16:38.165Z,52.65
2019-04-11T21:17:38.197Z,53.17
2019-04-11T21:18:38.165Z,53.17
2019-04-11T21:19:38.145Z,52.65
2019-04-11T21:20:39.471Z,53.59
2019-04-11T21:21:38.154Z,53.59
2019-04-11T21:22:38.159Z,52.75
2019-04-11T21:23:38.130Z,53.38
2019-04-11T21:24:38.124Z,53.49
2019-04-11T21:25:38.101Z,53.06
2019-04-11T21:26:38.102Z,53.80
2019-04-11T21:27:38.050Z,53.90
2019-04-11T21:28:38.070Z,53.38
2019-04-11T21:29:38.080Z,53.28
2019-04-11T21:30:38.078Z,54.11
2019-04-11T21:31:38.062Z,55.15
2019-04-11T21:32:38.002Z,55.04
2019-04-11T21:33:38.004Z,54.73
2019-04-11T21:34:38.031Z,54.63
2019-04-11T21:35:38.028Z,54.55
2019-04-11T21:36:37.980Z,54.55
2019-04-11T21:37:37.968Z,56.00
2019-04-11T21:38:37.950Z,54.32
2019-04-11T21:39:37.920Z,54.11
2019-04-11T21:40:37.972Z,54.83
2019-04-11T21:41:37.918Z,54.86
2019-04-11T21:42:37.904Z,55.25
2019-04-11T21:43:37.895Z,55.17
2019-04-11T21:44:37.898Z,54.86
2019-04-11T21:45:37.895Z,54.96
2019-04-11T21:46:41.629Z,55.58
2019-04-11T21:47:38.116Z,55.17
2019-04-11T21:48:37.872Z,55.79
2019-04-11T21:49:37.854Z,54.86
2019-04-11T21:50:40.389Z,56.00
2019-04-11T21:51:41.448Z,55.17
2019-04-11T21:52:37.804Z,55.27
2019-04-11T21:53:37.804Z,56.10
2019-04-11T21:54:37.804Z,55.69
2019-04-11T21:55:37.801Z,56.41
2019-04-11T21:56:37.767Z,55.58
2019-04-11T21:57:37.793Z,56.00
2019-04-11T21:58:37.732Z,56.10
2019-04-11T21:59:37.721Z,57.14
2019-04-11T22:00:37.741Z,56.10
2019-04-11T22:01:37.737Z,56.93
2019-04-11T22:02:37.690Z,57.14
2019-04-11T22:03:37.682Z,56.93
2019-04-11T22:04:37.686Z,56.41
2019-04-11T22:05:37.661Z,56.31
2019-04-11T22:06:37.660Z,57.14
2019-04-11T22:07:37.654Z,57.24
2019-04-11T22:08:37.620Z,57.67
2019-04-11T22:09:37.650Z,58.08
2019-04-11T22:10:40.038Z,58.70
2019-04-11T22:11:38.429Z,58.60
2019-04-11T22:12:39.756Z,57.87
2019-04-11T22:13:38.024Z,57.56
2019-04-11T22:14:41.341Z,58.29
2019-04-11T22:15:42.172Z,57.87
2019-04-11T22:16:38.609Z,57.45
2019-04-11T22:17:37.615Z,58.18
2019-04-11T22:18:37.553Z,58.29
2019-04-11T22:19:37.539Z,58.18
2019-04-11T22:20:37.488Z,59.74
2019-04-11T22:21:37.506Z,59.53
2019-04-11T22:22:37.522Z,59.01
2019-04-11T22:23:48.288Z,59.01
2019-04-11T22:24:38.484Z,58.50
2019-04-11T22:25:37.449Z,58.81
2019-04-11T22:26:37.440Z,58.50
2019-04-11T22:27:37.487Z,58.70
2019-04-11T22:28:37.422Z,59.33
2019-04-11T22:29:37.447Z,59.95
2019-04-11T22:30:37.400Z,59.43
2019-04-11T22:31:37.399Z,59.95
2019-04-11T22:32:37.390Z,59.84
2019-04-11T22:33:37.369Z,59.43
2019-04-11T22:34:37.329Z,60.05
2019-04-11T22:35:37.361Z,60.19
2019-04-11T22:36:37.334Z,60.19
2019-04-11T22:37:37.345Z,60.50
2019-04-11T22:38:37.336Z,61.54
2019-04-11T22:39:37.333Z,60.39
2019-04-11T22:40:37.285Z,59.98
2019-04-11T22:41:37.295Z,60.91
2019-04-11T22:42:37.313Z,60.50
2019-04-11T22:43:38.140Z,60.91
2019-04-11T22:44:38.010Z,61.33
2019-04-11T22:45:37.958Z,60.60
2019-04-11T22:46:37.852Z,60.81
2019-04-11T22:47:38.311Z,60.71
2019-04-11T22:48:39.077Z,60.71
2019-04-11T22:49:39.518Z,60.91
2019-04-11T22:50:40.314Z,61.22
2019-04-11T22:51:37.193Z,60.81
2019-04-11T22:52:37.185Z,61.02
2019-04-11T22:53:37.175Z,61.43
2019-04-11T22:54:37.180Z,61.22
2019-04-11T22:55:38.928Z,61.95
2019-04-11T22:56:37.119Z,61.74
2019-04-11T22:57:37.103Z,61.64
2019-04-11T22:58:37.163Z,61.12
2019-04-11T22:59:37.131Z,61.74
2019-04-11T23:00:37.047Z,62.16
2019-04-11T23:01:37.151Z,61.02
2019-04-11T23:02:37.081Z,60.71
2019-04-11T23:03:37.105Z,60.71
2019-04-11T23:04:37.077Z,60.81
2019-04-11T23:05:37.032Z,61.95
2019-04-11T23:06:37.018Z,61.54
2019-04-11T23:07:37.043Z,61.12
2019-04-11T23:08:37.001Z,62.05
2019-04-11T23:09:37.027Z,61.54
2019-04-11T23:10:36.979Z,61.74
2019-04-11T23:11:36.945Z,61.95
2019-04-11T23:12:36.935Z,61.43
2019-04-11T23:13:36.951Z,61.25
2019-04-11T23:14:36.933Z,61.33
2019-04-11T23:15:36.933Z,61.33
2019-04-11T23:16:36.905Z,61.77
2019-04-11T23:17:37.997Z,61.95
2019-04-11T23:18:36.886Z,62.08
2019-04-11T23:19:36.915Z,63.02
2019-04-11T23:20:36.873Z,62.50
2019-04-11T23:21:36.833Z,61.88
2019-04-11T23:22:36.822Z,62.19
2019-04-11T23:23:36.864Z,62.81
2019-04-11T23:24:36.813Z,63.02
2019-04-11T23:25:36.878Z,63.12
2019-04-11T23:26:36.812Z,63.54
2019-04-11T23:27:36.823Z,62.71
2019-04-11T23:28:36.758Z,63.02
2019-04-11T23:29:36.761Z,63.64
2019-04-11T23:30:36.759Z,64.69
2019-04-11T23:31:36.758Z,64.27
2019-04-11T23:32:36.724Z,64.58
2019-04-11T23:33:36.729Z,64.17
2019-04-11T23:34:36.727Z,64.37
2019-04-11T23:35:36.772Z,63.96
2019-04-11T23:36:36.676Z,63.85
2019-04-11T23:37:36.675Z,63.96
2019-04-11T23:38:36.688Z,64.79
2019-04-11T23:39:36.648Z,63.85
2019-04-11T23:40:36.693Z,64.17
2019-04-11T23:41:36.644Z,63.85
2019-04-11T23:42:36.607Z,63.75
2019-04-11T23:43:36.597Z,64.06
2019-04-11T23:44:36.618Z,64.06
2019-04-11T23:45:36.604Z,64.17
2019-04-11T23:46:36.584Z,64.69
2019-04-11T23:47:36.560Z,64.27
2019-04-11T23:48:36.616Z,64.37
2019-04-11T23:49:36.576Z,64.51
2019-04-11T23:50:36.568Z,65.31
2019-04-11T23:51:36.560Z,64.17
2019-04-11T23:52:36.514Z,64.27
2019-04-11T23:53:36.494Z,63.96
2019-04-11T23:54:36.532Z,64.06
2019-04-11T23:55:36.500Z,64.58
2019-04-11T23:56:36.506Z,64.58
2019-04-11T23:57:36.503Z,64.29
2019-04-11T23:58:36.488Z,64.72
2019-04-11T23:59:36.422Z,64.72
